Time;durP1;ratioP1;P1;durP2;ratioP2;P2;SDS_P1;SDS_P2;PMS_P1;PMS_P2;Temp;Humidity;BMP_temperature;BMP_pressure;BME280_temperature;BME280_humidity;BME280_pressure;Samples;Min_cycle;Max_cycle;Signal;HPM_P1;HPM_P2
2022/02/02 00:04:30;;;;;;;;;6.00;3.75;;;;;12.28;72.63;102057.38;4999861;28;45717;-61
2022/02/02 00:09:21;;;;;;;;;9.00;3.50;;;;;12.27;72.79;102057.47;4999411;28;45310;-61
2022/02/02 00:17:05;;;;;;;;;4.00;2.00;;;;;12.26;72.51;102064.53;4998420;28;45495;-61
2022/02/02 00:22:06;;;;;;;;;2.25;2.00;;;;;12.25;72.70;102054.03;5015919;28;45336;-59
2022/02/02 00:25:02;;;;;;;;;4.50;3.25;;;;;12.24;72.75;102065.50;5016153;28;45336;-61
2022/02/02 00:27:22;;;;;;;;;3.75;1.50;;;;;12.23;72.58;102053.22;5013131;28;46178;-61
2022/02/02 00:29:54;;;;;;;;;4.75;4.00;;;;;12.25;72.70;102043.47;5007111;28;45340;-61
2022/02/02 00:34:45;;;;;;;;;6.00;4.50;;;;;12.24;72.44;102060.22;5010873;28;45564;-61
2022/02/02 00:37:11;;;;;;;;;5.75;4.00;;;;;12.21;72.68;102065.66;5002930;28;45449;-61
2022/02/02 00:39:37;;;;;;;;;2.00;1.50;;;;;12.23;72.39;102062.00;5008883;28;45525;-61
2022/02/02 00:42:03;;;;;;;;;3.50;3.00;;;;;12.23;72.58;102069.09;5002657;28;45307;-59
2022/02/02 00:44:28;;;;;;;;;4.25;4.25;;;;;12.22;72.43;102067.38;5002861;28;45528;-59
2022/02/02 00:46:55;;;;;;;;;9.50;2.75;;;;;12.21;72.66;102063.00;5002500;28;45867;-59
2022/02/02 00:49:21;;;;;;;;;4.00;3.00;;;;;12.20;72.80;102064.81;5001500;28;45486;-59
2022/02/02 00:51:49;;;;;;;;;4.75;2.25;;;;;12.20;72.46;102070.09;5001259;28;45792;-59
2022/02/02 00:54:18;;;;;;;;;4.00;4.00;;;;;12.24;72.60;102076.97;5013058;28;45583;-59
2022/02/02 00:56:44;;;;;;;;;2.00;2.00;;;;;12.22;72.48;102078.78;5001204;28;46047;-61
2022/02/02 00:59:10;;;;;;;;;3.25;3.00;;;;;12.21;72.57;102071.78;5002123;28;45330;-57
2022/02/02 01:01:36;;;;;;;;;3.75;3.25;;;;;12.22;72.62;102075.28;5008984;28;45540;-60
2022/02/02 01:04:02;;;;;;;;;4.00;3.00;;;;;12.24;72.52;102082.25;5007163;28;45416;-57
2022/02/02 01:06:30;;;;;;;;;3.00;2.75;;;;;12.22;72.48;102081.44;5003134;28;45373;-57
2022/02/02 01:19:34;;;;;;;;;5.50;4.00;;;;;12.29;72.31;102072.31;5002916;28;45321;-58
2022/02/02 01:27:50;;;;;;;;;4.00;3.50;;;;;12.33;72.01;102075.69;5018214;28;45345;-58
2022/02/02 01:30:11;;;;;;;;;3.75;3.25;;;;;12.26;71.99;102069.81;5005038;28;45240;-60
2022/02/02 01:32:38;;;;;;;;;4.00;2.50;;;;;12.27;72.16;102074.16;5010926;28;45324;-61
2022/02/02 01:35:06;;;;;;;;;8.00;4.00;;;;;12.28;72.17;102073.25;5002513;28;45424;-60
2022/02/02 01:37:34;;;;;;;;;4.00;4.00;;;;;12.29;72.07;102082.03;5000622;28;45540;-61
2022/02/02 01:40:06;;;;;;;;;8.25;5.25;;;;;12.30;72.15;102079.31;5007435;28;45293;-61
2022/02/02 01:42:40;;;;;;;;;5.75;3.25;;;;;12.35;72.02;102076.47;5002213;28;45380;-60
2022/02/02 01:45:21;;;;;;;;;8.00;3.75;;;;;12.38;72.03;102086.88;5009193;28;45876;-60
2022/02/02 01:48:36;;;;;;;;;5.50;4.00;;;;;12.39;72.03;102087.75;5020970;28;45461;-60
2022/02/02 01:53:22;;;;;;;;;7.00;5.00;;;;;12.35;72.11;102072.97;5021783;28;45243;-60
2022/02/02 01:55:50;;;;;;;;;7.75;7.25;;;;;12.32;72.04;102076.59;5021624;28;45166;-60
2022/02/02 01:58:39;;;;;;;;;9.00;7.00;;;;;12.30;72.19;102076.66;5021706;28;46159;-60
2022/02/02 02:01:07;;;;;;;;;8.00;6.25;;;;;12.29;72.19;102074.09;5021608;28;45328;-61
2022/02/02 02:03:33;;;;;;;;;7.25;5.00;;;;;12.27;71.92;102079.44;5022025;28;45332;-60
2022/02/02 02:05:58;;;;;;;;;8.50;6.25;;;;;12.27;72.14;102086.53;5022012;28;45311;-61
2022/02/02 02:08:25;;;;;;;;;8.00;8.00;;;;;12.26;72.26;102083.03;5021556;28;46119;-61
2022/02/02 02:10:50;;;;;;;;;10.00;6.50;;;;;12.26;72.11;102083.03;5021452;28;45592;-60
2022/02/02 02:13:40;;;;;;;;;11.25;8.75;;;;;12.26;72.32;102080.38;5021643;28;45399;-60
2022/02/02 02:16:02;;;;;;;;;9.25;6.50;;;;;12.26;72.15;102074.25;5021636;28;45575;-60
2022/02/02 02:18:28;;;;;;;;;7.50;6.25;;;;;12.23;72.28;102084.94;5021256;28;45392;-61
2022/02/02 02:20:55;;;;;;;;;8.25;7.75;;;;;12.23;72.55;102072.56;5010208;28;45349;-61
2022/02/02 02:23:20;;;;;;;;;8.50;7.00;;;;;12.23;72.39;102084.94;5020267;28;45327;-60
2022/02/02 02:25:46;;;;;;;;;7.50;5.50;;;;;12.23;72.32;102084.94;5021415;28;45377;-61
2022/02/02 02:28:35;;;;;;;;;9.00;8.00;;;;;12.22;72.45;102081.44;5021252;28;45397;-61
2022/02/02 02:31:09;;;;;;;;;9.00;7.25;;;;;12.22;72.46;102077.94;5021161;28;45276;-60
2022/02/02 03:30:30;;;;;;;;;8.25;7.50;;;;;12.11;73.38;102069.66;5020566;28;45166;-61
2022/02/02 03:49:29;;;;;;;;;11.50;9.50;;;;;12.05;73.54;102077.84;5019774;28;45463;-61
2022/02/02 04:00:17;;;;;;;;;7.75;7.50;;;;;12.06;73.34;102092.75;5019836;28;45274;-61
2022/02/02 04:05:31;;;;;;;;;8.50;7.25;;;;;12.08;73.37;102081.19;5020073;28;45944;-62
2022/02/02 04:08:24;;;;;;;;;9.75;8.25;;;;;12.10;73.33;102081.13;5020071;28;45345;-61
2022/02/02 04:10:50;;;;;;;;;6.00;5.00;;;;;12.14;73.30;102085.34;5022643;28;45441;-61
2022/02/02 04:14:33;;;;;;;;;7.00;7.00;;;;;12.16;73.35;102088.75;5023694;28;45227;-61
2022/02/02 04:51:59;;;;;;;;;5.75;5.00;;;;;11.72;73.63;102084.47;5009865;28;45402;-61
2022/02/02 05:10:34;;;;;;;;;10.25;7.25;;;;;11.49;74.02;102075.81;5022396;28;45360;-62
2022/02/02 05:45:23;;;;;;;;;13.50;9.00;;;;;11.70;74.17;102109.22;5001906;28;45384;-61
2022/02/02 05:52:50;;;;;;;;;16.00;10.25;;;;;11.78;74.01;102115.03;5001668;28;45451;-62
2022/02/02 05:55:15;;;;;;;;;9.25;8.75;;;;;11.79;74.01;102108.84;5001813;28;45423;-61
2022/02/02 05:57:45;;;;;;;;;17.75;11.75;;;;;11.80;73.97;102121.13;5001681;28;45341;-61
2022/02/02 06:00:12;;;;;;;;;9.00;8.00;;;;;11.81;74.19;102119.34;5001950;28;45444;-61
2022/02/02 06:02:39;;;;;;;;;15.50;10.50;;;;;11.82;73.82;102121.06;5001263;28;45441;-61
2022/02/02 06:05:08;;;;;;;;;16.50;11.50;;;;;11.83;73.71;102123.63;5001135;28;45564;-61
2022/02/02 06:07:36;;;;;;;;;17.00;13.00;;;;;11.87;73.69;102124.38;5001618;28;45355;-61
2022/02/02 06:10:08;;;;;;;;;15.00;12.75;;;;;11.85;73.80;102124.47;5001283;28;45601;-61
2022/02/02 06:12:34;;;;;;;;;14.50;12.00;;;;;11.88;73.54;102126.94;5001001;28;45523;-61
2022/02/02 06:15:08;;;;;;;;;19.75;14.25;;;;;11.91;73.62;102126.81;5001039;28;45302;-61
2022/02/02 06:17:39;;;;;;;;;16.50;12.75;;;;;11.93;73.50;102132.91;5008744;28;45465;-61
2022/02/02 06:20:05;;;;;;;;;18.25;16.50;;;;;11.95;73.48;102138.13;5009593;28;45494;-61
2022/02/02 06:22:32;;;;;;;;;15.50;13.00;;;;;11.96;73.39;102135.41;5021065;28;45194;-61
2022/02/02 06:25:16;;;;;;;;;12.00;12.00;;;;;11.96;73.39;102140.69;5020480;28;45550;-61
2022/02/02 06:27:46;;;;;;;;;11.00;9.50;;;;;11.97;73.46;102134.47;5020902;28;45313;-62
2022/02/02 06:30:12;;;;;;;;;19.00;12.00;;;;;11.97;73.33;102138.91;5020825;28;45536;-61
2022/02/02 06:32:49;;;;;;;;;17.75;12.50;;;;;11.96;73.22;102134.56;5019550;28;46037;-62
2022/02/02 06:35:16;;;;;;;;;16.75;12.75;;;;;11.99;73.16;102137.03;5007878;28;45442;-62
2022/02/02 06:37:44;;;;;;;;;15.75;13.50;;;;;11.97;73.18;102141.53;5014431;28;45466;-62
2022/02/02 06:40:10;;;;;;;;;15.00;11.50;;;;;11.97;72.87;102142.41;5014858;28;45221;-62
2022/02/02 06:42:37;;;;;;;;;14.25;12.00;;;;;11.98;73.29;102135.34;5008340;28;46343;-59
2022/02/02 06:45:04;;;;;;;;;13.25;13.25;;;;;12.01;73.23;102141.34;5008928;28;45471;-60
2022/02/02 06:47:30;;;;;;;;;15.50;11.75;;;;;12.04;73.17;102143.00;5007365;28;45469;-60
2022/02/02 06:50:08;;;;;;;;;17.75;16.00;;;;;12.07;72.85;102152.56;5005639;28;45675;-60
2022/02/02 06:52:40;;;;;;;;;16.25;12.50;;;;;12.07;72.94;102149.94;5012398;28;46850;-60
2022/02/02 06:55:25;;;;;;;;;15.00;14.00;;;;;12.06;73.02;102150.84;5000794;28;45479;-60
2022/02/02 06:58:23;;;;;;;;;3.00;2.00;;;;;12.04;72.89;102150.06;5000391;28;45609;-62
2022/02/02 07:01:28;;;;;;;;;14.25;11.00;;;;;12.04;73.00;102158.84;5017284;28;45522;-61
2022/02/02 07:04:08;;;;;;;;;12.50;11.00;;;;;12.04;72.85;102160.63;5007879;28;47635;-61
2022/02/02 07:12:03;;;;;;;;;10.00;9.50;;;;;12.09;72.92;102169.22;5003769;28;46116;-61
2022/02/02 07:14:43;;;;;;;;;15.00;10.00;;;;;12.08;72.75;102172.78;5014751;28;45554;-62
2022/02/02 07:17:33;;;;;;;;;7.75;7.75;;;;;12.06;73.10;102170.19;5019387;28;45300;-61
2022/02/02 07:20:16;;;;;;;;;9.50;9.00;;;;;12.04;73.27;102173.84;5011542;28;45412;-61
2022/02/02 07:28:03;;;;;;;;;16.75;9.25;;;;;11.97;73.39;102184.66;5006780;28;45521;-61
2022/02/02 07:33:20;;;;;;;;;4.00;4.00;;;;;11.95;73.67;102180.38;5009712;28;46226;-61
2022/02/02 07:35:58;;;;;;;;;8.00;4.75;;;;;11.96;73.65;102182.94;5013845;28;45183;-61
2022/02/02 07:38:31;;;;;;;;;7.00;7.00;;;;;11.97;73.69;102189.94;5013877;28;45413;-61
2022/02/02 07:41:07;;;;;;;;;10.25;5.25;;;;;11.94;73.57;102194.50;5018031;28;45371;-61
2022/02/02 07:43:37;;;;;;;;;7.50;7.50;;;;;11.96;73.58;102184.72;5008025;28;45608;-61
2022/02/02 07:46:05;;;;;;;;;7.00;3.00;;;;;11.96;73.61;102188.22;5013378;28;45924;-61
2022/02/02 07:48:37;;;;;;;;;4.00;4.00;;;;;11.99;73.79;102195.16;5017153;28;45395;-61
2022/02/02 07:51:04;;;;;;;;;8.75;4.25;;;;;12.00;73.60;102202.16;5007825;28;45326;-62
2022/02/02 07:53:38;;;;;;;;;3.50;3.25;;;;;12.02;73.70;102201.19;5016167;28;45234;-61
2022/02/02 07:56:10;;;;;;;;;8.00;4.00;;;;;12.03;73.68;102209.97;5006263;28;45449;-61
2022/02/02 07:58:39;;;;;;;;;3.50;3.00;;;;;12.00;73.60;102213.56;5010735;28;45250;-61
2022/02/02 08:01:06;;;;;;;;;4.50;3.00;;;;;11.98;73.70;102210.13;5012227;28;45396;-61
2022/02/02 08:03:38;;;;;;;;;3.00;2.00;;;;;12.00;73.72;102218.00;5009622;28;45424;-61
2022/02/02 08:06:04;;;;;;;;;7.00;5.00;;;;;11.99;73.84;102214.50;5022369;28;46383;-61
2022/02/02 08:08:31;;;;;;;;;7.75;2.75;;;;;12.00;73.69;102210.06;5022888;28;45507;-61
2022/02/02 08:10:59;;;;;;;;;8.00;5.00;;;;;12.00;73.88;102215.34;5020578;28;45338;-61
2022/02/02 08:13:36;;;;;;;;;4.75;3.75;;;;;12.02;73.98;102213.53;5004946;28;45321;-61
2022/02/02 08:16:04;;;;;;;;;5.00;5.00;;;;;12.01;74.02;102206.53;5024546;28;46133;-61
2022/02/02 08:18:30;;;;;;;;;10.00;4.00;;;;;12.05;74.04;102212.53;5015590;28;45245;-61
2022/02/02 08:20:56;;;;;;;;;7.00;4.00;;;;;12.08;73.95;102220.31;5016447;28;45416;-61
2022/02/02 08:23:21;;;;;;;;;2.75;2.25;;;;;12.06;74.04;102217.75;5022700;28;45427;-62
2022/02/02 08:25:47;;;;;;;;;3.25;3.25;;;;;12.08;73.95;102220.31;5018296;28;45978;-61
2022/02/02 08:28:17;;;;;;;;;5.00;4.50;;;;;12.11;74.17;102228.13;5013726;28;45333;-62
2022/02/02 08:30:42;;;;;;;;;7.50;4.50;;;;;12.12;73.85;102228.06;5014279;28;45297;-62
2022/02/02 08:33:13;;;;;;;;;14.25;7.00;;;;;12.14;74.26;102223.56;5010399;28;45568;-61
2022/02/02 08:35:44;;;;;;;;;8.75;5.00;;;;;12.16;73.89;102229.63;5018468;28;46477;-61
2022/02/02 08:38:17;;;;;;;;;4.50;3.75;;;;;12.20;73.84;102225.94;5021822;28;45417;-61
2022/02/02 08:40:57;;;;;;;;;5.75;2.75;;;;;12.22;73.71;102223.25;5022249;28;45159;-62
2022/02/02 08:43:30;;;;;;;;;7.25;5.00;;;;;12.23;73.72;102231.09;5020918;28;45310;-61
2022/02/02 08:46:03;;;;;;;;;7.75;5.00;;;;;12.25;73.51;102229.28;5003764;28;46275;-61
2022/02/02 08:48:29;;;;;;;;;4.50;4.00;;;;;12.22;73.51;102232.03;5015904;28;45203;-61
2022/02/02 08:51:02;;;;;;;;;7.75;4.50;;;;;12.22;73.95;102242.59;5027418;28;45277;-61
2022/02/02 08:53:34;;;;;;;;;6.00;4.50;;;;;12.26;73.35;102238.06;5018788;28;45486;-61
2022/02/02 09:01:02;;;;;;;;;7.00;5.00;;;;;12.42;72.86;102223.25;5018005;28;45455;-61
2022/02/02 09:06:12;;;;;;;;;11.25;5.00;;;;;12.46;72.90;102224.81;5021705;28;45507;-61
2022/02/02 09:08:40;;;;;;;;;5.00;4.00;;;;;12.48;72.49;102219.47;5022047;28;45387;-61
2022/02/02 09:24:34;;;;;;;;;3.50;2.75;;;;;12.48;71.81;102220.34;5019205;28;45494;-61
2022/02/02 09:34:55;;;;;;;;;3.00;1.75;;;;;12.56;71.52;102226.16;5011811;28;45325;-64
2022/02/02 09:37:22;;;;;;;;;5.75;4.00;;;;;12.61;71.51;102220.66;5019154;28;46156;-61
2022/02/02 09:39:56;;;;;;;;;4.00;4.00;;;;;12.66;70.99;102217.81;5020481;28;45372;-59
2022/02/02 09:42:22;;;;;;;;;6.75;3.50;;;;;12.71;71.45;102210.53;5019295;28;45320;-60
2022/02/02 09:44:53;;;;;;;;;4.00;3.00;;;;;12.76;71.08;102205.91;5020793;28;45405;-59
2022/02/02 09:47:28;;;;;;;;;3.25;2.50;;;;;12.78;70.78;102209.31;5015048;28;46344;-60
2022/02/02 09:52:22;;;;;;;;;2.75;0.75;;;;;12.83;70.43;102220.56;5020368;28;45354;-59
2022/02/02 10:05:04;;;;;;;;;5.00;4.75;;;;;12.78;70.26;102241.06;5023961;28;45328;-59
2022/02/02 10:07:52;;;;;;;;;4.50;3.75;;;;;12.79;70.09;102251.56;5018276;28;45278;-61
2022/02/02 10:15:53;;;;;;;;;4.50;3.50;;;;;12.79;70.10;102258.63;5020327;28;45463;-61
2022/02/02 10:18:19;;;;;;;;;5.00;3.25;;;;;12.78;69.93;102247.19;5019670;28;45280;-62
2022/02/02 10:20:52;;;;;;;;;4.25;4.25;;;;;12.74;69.95;102250.94;5019056;28;45471;-61
2022/02/02 10:23:23;;;;;;;;;8.50;5.00;;;;;12.75;70.11;102246.50;5005461;28;45435;-62
2022/02/02 10:25:57;;;;;;;;;3.50;3.25;;;;;12.76;70.22;102246.41;5018883;28;45380;-61
2022/02/02 10:28:23;;;;;;;;;5.00;4.00;;;;;12.76;70.24;102246.41;5019952;28;46636;-61
2022/02/02 10:30:54;;;;;;;;;7.25;6.00;;;;;12.81;69.97;102243.59;5019221;28;45236;-62
2022/02/02 10:33:25;;;;;;;;;5.00;5.00;;;;;12.83;70.00;102244.38;5012162;28;45499;-59
2022/02/02 10:35:53;;;;;;;;;8.50;4.00;;;;;12.86;69.82;102254.78;5017541;28;45320;-64
2022/02/02 10:38:28;;;;;;;;;5.75;4.00;;;;;12.87;69.92;102261.81;5020054;28;45571;-61
2022/02/02 10:41:12;;;;;;;;;9.25;5.75;;;;;12.89;70.03;102253.81;5018785;28;45377;-67
2022/02/02 10:43:43;;;;;;;;;5.00;4.75;;;;;12.91;70.04;102258.09;5018924;28;45321;-63
2022/02/02 10:46:10;;;;;;;;;3.50;3.50;;;;;12.94;69.64;102252.66;5020016;28;45604;-62
2022/02/02 10:48:58;;;;;;;;;5.00;4.75;;;;;12.92;69.51;102258.97;5018757;28;45611;-62
2022/02/02 10:54:24;;;;;;;;;4.50;2.00;;;;;12.97;69.24;102264.91;5011105;28;45413;-61
2022/02/02 10:56:56;;;;;;;;;7.50;3.00;;;;;12.91;68.80;102255.47;5015672;28;45449;-62
2022/02/02 10:59:34;;;;;;;;;4.00;2.00;;;;;12.94;68.95;102257.97;5015867;28;45385;-66
2022/02/02 11:07:31;;;;;;;;;3.00;2.75;;;;;13.02;68.00;102269.06;5009749;28;45503;-60
2022/02/02 11:09:57;;;;;;;;;4.50;3.75;;;;;13.00;68.38;102262.13;5019672;28;45467;-60
2022/02/02 11:12:30;;;;;;;;;5.00;4.00;;;;;13.02;68.26;102260.25;5020564;28;45344;-61
2022/02/02 11:15:01;;;;;;;;;8.00;5.00;;;;;13.07;68.26;102269.72;5020427;28;45281;-59
2022/02/02 11:17:48;;;;;;;;;3.00;3.00;;;;;13.11;68.34;102260.72;5020272;28;45168;-61
2022/02/02 11:20:16;;;;;;;;;3.00;3.00;;;;;13.13;68.22;102252.72;5020466;28;46279;-61
2022/02/02 11:22:55;;;;;;;;;3.75;3.00;;;;;13.14;68.21;102257.94;5018996;28;45384;-63
2022/02/02 11:25:24;;;;;;;;;2.25;2.25;;;;;13.19;67.85;102256.84;5020149;28;45580;-62
2022/02/02 11:27:56;;;;;;;;;4.00;3.50;;;;;13.19;68.06;102257.69;5020033;28;45577;-62
2022/02/02 11:30:24;;;;;;;;;3.00;2.00;;;;;13.20;67.80;102262.13;5020128;28;46273;-62
2022/02/02 11:32:52;;;;;;;;;3.00;2.50;;;;;13.20;67.80;102262.13;5015985;28;45552;-60
2022/02/02 11:35:40;;;;;;;;;4.75;3.25;;;;;13.22;67.55;102254.97;5014863;28;45316;-62
2022/02/02 11:38:18;;;;;;;;;4.25;3.00;;;;;13.21;67.80;102258.53;5020444;28;45366;-63
2022/02/02 11:41:06;;;;;;;;;3.25;3.00;;;;;13.20;67.81;102253.31;5018124;28;45313;-62
2022/02/02 11:43:50;;;;;;;;;3.25;3.00;;;;;13.14;67.65;102251.78;5019499;28;45512;-63
2022/02/02 11:46:40;;;;;;;;;4.00;3.00;;;;;13.09;67.79;102251.97;5015639;28;45360;-64
2022/02/02 11:49:13;;;;;;;;;3.25;1.75;;;;;13.04;67.77;102255.78;5010794;28;45400;-63
2022/02/02 11:51:50;;;;;;;;;2.00;2.00;;;;;13.01;68.00;102255.91;5022320;28;45491;-62
2022/02/02 11:54:19;;;;;;;;;3.00;2.50;;;;;13.02;67.89;102255.81;5010601;28;45392;-61
2022/02/02 11:57:01;;;;;;;;;2.00;2.00;;;;;13.04;67.88;102256.63;5006421;28;45424;-62
2022/02/02 11:59:50;;;;;;;;;1.50;1.50;;;;;13.05;68.13;102247.78;5019114;28;45415;-59
2022/02/02 12:02:30;;;;;;;;;3.00;2.00;;;;;13.05;68.07;102250.41;5010921;28;45450;-62
2022/02/02 12:05:05;;;;;;;;;3.25;2.25;;;;;13.08;68.06;102252.91;5007254;28;45642;-63
2022/02/02 12:08:04;;;;;;;;;2.00;2.00;;;;;13.08;68.13;102255.56;5000839;28;45296;-60
2022/02/02 12:57:26;;;;;;;;;3.00;3.00;;;;;13.22;66.71;102227.66;5021735;28;45573;-58
2022/02/02 13:00:07;;;;;;;;;3.00;3.00;;;;;13.17;66.84;102235.75;5019439;28;45586;-59
2022/02/02 13:02:37;;;;;;;;;5.00;4.00;;;;;13.12;67.02;102227.19;5020861;28;45300;-59
2022/02/02 13:05:03;;;;;;;;;3.25;3.00;;;;;13.10;66.79;102221.94;5026462;28;45517;-59
2022/02/02 13:07:30;;;;;;;;;3.00;3.00;;;;;13.07;67.10;102230.03;5011190;28;45397;-59
2022/02/02 13:09:58;;;;;;;;;4.00;2.00;;;;;13.02;66.79;102223.22;5008363;28;45282;-59
2022/02/02 13:12:33;;;;;;;;;4.25;2.00;;;;;13.00;66.93;102233.88;5011049;28;45210;-59
2022/02/02 13:15:30;;;;;;;;;1.00;1.00;;;;;13.03;67.19;102246.09;5002890;28;45237;-59
2022/02/02 13:18:18;;;;;;;;;2.00;2.00;;;;;13.02;66.91;102241.75;5002608;28;46439;-58
2022/02/02 13:23:31;;;;;;;;;2.75;2.75;;;;;13.04;66.70;102231.97;5010630;28;45406;-59
2022/02/02 13:26:06;;;;;;;;;1.00;0.00;;;;;13.12;66.37;102235.97;5006430;28;45352;-59
2022/02/02 13:29:01;;;;;;;;;5.25;3.00;;;;;13.20;66.35;102243.59;5002227;28;45396;-59
2022/02/02 13:36:58;;;;;;;;;4.75;3.00;;;;;13.22;66.19;102241.72;5022335;28;45321;-59
2022/02/02 13:59:00;;;;;;;;;5.00;3.25;;;;;13.43;64.94;102239.00;5017346;28;45327;-59
2022/02/02 14:01:45;;;;;;;;;5.25;3.00;;;;;13.40;65.20;102240.00;5020918;28;46397;-58
2022/02/02 14:09:34;;;;;;;;;4.25;3.75;;;;;13.34;65.18;102249.09;5021654;28;45444;-59
2022/02/02 14:31:10;;;;;;;;;2.00;1.00;;;;;13.22;63.97;102223.22;5021488;28;45205;-59
2022/02/02 14:33:38;;;;;;;;;0.00;0.00;;;;;13.20;63.83;102225.06;5021472;28;45605;-59
2022/02/02 14:36:06;;;;;;;;;1.00;0.75;;;;;13.16;63.73;102223.44;5021539;28;45459;-59
2022/02/02 14:41:14;;;;;;;;;1.25;1.00;;;;;13.05;63.80;102241.63;5013067;28;45598;-59
2022/02/02 14:43:49;;;;;;;;;0.00;0.00;;;;;12.99;63.76;102250.69;5021294;28;45385;-59
2022/02/02 14:46:18;;;;;;;;;4.00;1.00;;;;;12.93;63.80;102248.31;5020953;28;45312;-59
2022/02/02 14:48:59;;;;;;;;;1.50;0.50;;;;;12.92;64.14;102249.25;5021262;28;45245;-59
2022/02/02 14:54:29;;;;;;;;;1.75;1.00;;;;;12.97;63.77;102246.41;5020377;28;45316;-59
2022/02/02 15:27:16;;;;;;;;;1.00;1.00;;;;;12.91;63.54;102251.97;5020270;28;45960;-59
2022/02/02 15:31:54;;;;;;;;;0.00;0.00;;;;;12.86;63.32;102229.22;5020639;28;45352;-59
2022/02/02 15:34:29;;;;;;;;;0.75;0.75;;;;;12.86;63.14;102246.88;5020772;28;45460;-59
2022/02/02 15:39:23;;;;;;;;;4.25;1.75;;;;;12.81;63.29;102247.09;5020331;28;45260;-59
2022/02/02 16:03:36;;;;;;;;;1.00;0.00;;;;;12.73;63.59;102216.63;5005097;28;45490;-59
2022/02/02 16:06:17;;;;;;;;;1.50;0.00;;;;;12.74;63.65;102213.91;5010932;28;45340;-59
2022/02/02 16:08:45;;;;;;;;;0.00;0.00;;;;;12.74;63.36;102223.63;5009613;28;46672;-59
2022/02/02 16:13:52;;;;;;;;;1.00;1.00;;;;;12.66;63.23;102226.63;5014336;28;45370;-59
2022/02/02 16:19:13;;;;;;;;;0.00;0.00;;;;;12.66;63.08;102217.81;5024136;28;45249;-58
2022/02/02 16:33:11;;;;;;;;;1.25;1.25;;;;;12.60;63.13;102211.00;5008467;28;45470;-58
2022/02/02 16:37:59;;;;;;;;;2.00;2.00;;;;;12.60;63.35;102204.88;5012246;28;45316;-58
2022/02/02 16:40:31;;;;;;;;;4.00;2.25;;;;;12.56;63.32;102202.38;5004072;28;46497;-58
2022/02/02 16:45:36;;;;;;;;;2.25;1.25;;;;;12.58;63.37;102195.22;5007149;28;45288;-58
2022/02/02 16:48:03;;;;;;;;;1.50;1.50;;;;;12.60;63.58;102205.72;5006618;28;45424;-58
2022/02/02 16:50:35;;;;;;;;;2.00;2.00;;;;;12.57;63.42;102201.44;5014209;28;46141;-58
2022/02/02 16:53:08;;;;;;;;;2.00;2.00;;;;;12.57;63.63;102200.59;5015729;28;45373;-58
2022/02/02 17:24:10;;;;;;;;;3.75;3.75;;;;;12.53;63.54;102199.84;5004541;28;45287;-59
2022/02/02 17:33:35;;;;;;;;;4.00;2.00;;;;;12.18;63.70;102185.53;5008946;28;45549;-61
2022/02/02 17:39:08;;;;;;;;;1.25;1.00;;;;;12.24;63.50;102203.78;5014416;28;45368;-62
2022/02/02 17:41:57;;;;;;;;;1.00;1.00;;;;;12.27;63.27;102206.28;5013445;28;45489;-74
2022/02/02 18:19:42;;;;;;;;;1.50;1.00;;;;;12.11;61.76;102213.13;5008062;28;45431;-63
2022/02/02 18:22:08;;;;;;;;;2.25;2.00;;;;;12.14;61.73;102217.41;5006151;28;45545;-62
2022/02/02 18:24:48;;;;;;;;;2.50;1.25;;;;;12.18;61.58;102211.09;5010792;28;45491;-64
2022/02/02 18:27:20;;;;;;;;;1.00;1.00;;;;;12.22;61.51;102220.59;5014615;28;46969;-64
2022/02/02 18:30:27;;;;;;;;;0.00;0.00;;;;;12.24;61.45;102217.00;5011369;28;45597;-64
2022/02/02 18:32:48;;;;;;;;;1.75;1.50;;;;;12.26;61.23;102209.84;5007406;28;46577;-65
2022/02/02 18:35:18;;;;;;;;;1.25;1.00;;;;;12.27;60.71;102208.91;5013037;28;45459;-63
2022/02/02 18:39:08;;;;;;;;;0.25;0.25;;;;;12.26;61.09;102207.19;5010165;28;46047;-64
2022/02/02 18:46:47;;;;;;;;;2.00;1.00;;;;;12.27;60.82;102205.41;4980279;28;45673;-62
2022/02/02 18:54:27;;;;;;;;;3.00;2.00;;;;;12.27;60.64;102201.00;5006729;28;45484;-62
2022/02/02 18:57:14;;;;;;;;;1.75;1.75;;;;;12.28;60.44;102213.28;5012759;28;46409;-62
2022/02/02 19:38:22;;;;;;;;;3.25;3.25;;;;;12.25;61.53;102202.84;5010796;28;45343;-58
2022/02/02 20:01:44;;;;;;;;;17.25;15.50;;;;;12.22;61.18;102191.53;5014810;28;45314;-60
2022/02/02 20:06:01;;;;;;;;;4.00;4.00;;;;;12.19;60.79;102183.75;5011176;28;45807;-59
2022/02/02 20:08:46;;;;;;;;;3.00;3.00;;;;;12.18;60.85;102185.53;5014680;28;45312;-59
2022/02/02 20:11:19;;;;;;;;;2.25;2.25;;;;;12.18;60.84;102197.88;5009993;28;45411;-59
2022/02/02 20:13:46;;;;;;;;;4.00;4.00;;;;;12.18;60.90;102190.81;5012319;28;45523;-62
2022/02/02 20:16:12;;;;;;;;;2.75;2.75;;;;;12.18;60.73;102200.53;5009826;28;46440;-59
2022/02/02 20:18:43;;;;;;;;;4.00;2.75;;;;;12.17;60.94;102198.81;5013487;28;45377;-61
2022/02/02 20:21:12;;;;;;;;;8.50;5.00;;;;;12.17;60.57;102199.69;5013098;28;45309;-59
2022/02/02 20:23:46;;;;;;;;;2.25;2.25;;;;;12.17;60.57;102204.09;4997245;28;45616;-63
2022/02/02 20:26:17;;;;;;;;;2.25;2.25;;;;;12.16;60.17;102207.63;5014012;28;45475;-61
2022/02/02 20:28:45;;;;;;;;;3.75;2.75;;;;;12.14;60.51;102209.50;5013672;28;45395;-59
2022/02/02 20:31:12;;;;;;;;;1.75;1.75;;;;;12.13;60.52;102210.44;5019522;28;45375;-62
2022/02/02 20:33:39;;;;;;;;;2.75;2.75;;;;;12.10;60.61;102200.00;5013002;28;45557;-59
2022/02/02 20:36:07;;;;;;;;;4.00;4.00;;;;;12.10;60.47;102214.06;5011478;28;45474;-60
2022/02/02 20:38:34;;;;;;;;;5.00;3.50;;;;;12.10;60.65;102210.56;5010306;28;45620;-61
2022/02/02 20:41:01;;;;;;;;;3.75;3.25;;;;;12.08;60.28;102218.53;5012021;28;45387;-60
2022/02/02 21:10:36;;;;;;;;;4.00;4.00;;;;;11.88;60.44;102203.53;5012854;28;45298;-58
2022/02/02 21:15:48;;;;;;;;;4.75;4.25;;;;;11.90;60.38;102204.31;5011720;28;45374;-60
2022/02/02 21:18:18;;;;;;;;;3.25;3.25;;;;;11.91;60.47;102207.81;5011614;28;45330;-60
2022/02/02 21:21:00;;;;;;;;;3.50;2.25;;;;;11.91;60.16;102205.16;5010355;28;45416;-61
2022/02/02 21:28:46;;;;;;;;;1.75;1.75;;;;;11.94;61.39;102205.06;5020562;28;45501;-58
2022/02/02 21:31:13;;;;;;;;;3.00;1.00;;;;;12.00;59.94;102196.88;5010065;28;45450;-58
2022/02/02 21:33:39;;;;;;;;;1.00;1.00;;;;;12.14;62.35;102202.44;5012767;28;45317;-57
2022/02/02 21:36:09;;;;;;;;;3.25;3.00;;;;;12.26;59.88;102194.00;5010472;28;45550;-61
2022/02/02 21:39:03;;;;;;;;;4.25;2.25;;;;;12.28;59.25;102196.56;5011581;28;45425;-57
2022/02/02 21:41:30;;;;;;;;;2.00;1.00;;;;;12.32;60.66;102197.28;5011797;28;45420;-53
2022/02/02 21:43:56;;;;;;;;;5.00;1.00;;;;;12.34;61.20;102196.31;5012294;28;45421;-54
2022/02/02 21:46:22;;;;;;;;;3.00;2.00;;;;;12.41;59.47;102202.19;5011053;28;45665;-55
2022/02/02 21:48:48;;;;;;;;;3.75;2.25;;;;;12.38;58.44;102197.88;5011803;28;46339;-59
2022/02/02 21:51:24;;;;;;;;;2.75;1.50;;;;;12.33;58.15;102194.59;5011079;28;45456;-59
2022/02/02 21:53:49;;;;;;;;;2.00;1.00;;;;;12.25;58.25;102188.78;5005033;28;45478;-60
2022/02/02 21:56:15;;;;;;;;;4.75;2.00;;;;;12.18;58.24;102196.09;5007448;28;45446;-59
2022/02/02 21:58:40;;;;;;;;;1.00;1.00;;;;;12.10;58.30;102200.00;5009545;28;45423;-59
2022/02/02 22:01:06;;;;;;;;;2.00;2.00;;;;;12.03;58.33;102191.47;5013534;28;45476;-59
2022/02/02 22:03:31;;;;;;;;;1.00;1.00;;;;;12.00;58.40;102189.78;5008642;28;45443;-58
2022/02/02 22:05:57;;;;;;;;;1.50;1.00;;;;;11.98;58.58;102188.16;5011729;28;45543;-60
2022/02/02 22:08:22;;;;;;;;;2.75;2.00;;;;;11.95;58.67;102181.22;5008257;28;46502;-61
2022/02/02 22:10:48;;;;;;;;;2.00;1.25;;;;;11.94;58.27;102176.00;5010588;28;45522;-61
2022/02/02 22:13:15;;;;;;;;;2.75;2.00;;;;;11.93;58.53;102172.53;5009102;28;45397;-59
2022/02/02 22:15:49;;;;;;;;;3.00;2.00;;;;;11.94;58.74;102174.22;5009087;28;45625;-60
2022/02/02 22:18:17;;;;;;;;;1.00;1.00;;;;;11.94;58.66;102165.44;5010156;28;45511;-59
2022/02/02 22:20:44;;;;;;;;;2.00;2.00;;;;;11.94;58.39;102173.38;5007368;28;46483;-62
2022/02/02 22:23:09;;;;;;;;;3.00;1.50;;;;;11.92;58.56;102173.41;5014545;28;45501;-58
2022/02/02 22:25:35;;;;;;;;;2.00;2.00;;;;;11.91;58.65;102166.41;5007422;28;45456;-59
2022/02/02 22:28:01;;;;;;;;;3.00;3.00;;;;;11.90;58.89;102177.06;5008047;28;46580;-60